Time;durP1;ratioP1;P1;durP2;ratioP2;P2;SDS_P1;SDS_P2;PMS_P1;PMS_P2;Temp;Humidity;BMP_temperature;BMP_pressure;BME280_temperature;BME280_humidity;BME280_pressure;Samples;Min_cycle;Max_cycle;Signal;HPM_P1;HPM_P2
2023/08/31 00:01:48;;;;;;;1999.90;999.90;;;;;;;13.87;100.00;93835.56;5008721;28;20218;-53
2023/08/31 00:04:14;;;;;;;1999.90;999.90;;;;;;;13.85;100.00;93844.25;5008598;28;20209;-55
2023/08/31 00:06:40;;;;;;;1999.90;999.90;;;;;;;13.80;100.00;93847.59;5008849;28;20179;-55
2023/08/31 00:09:09;;;;;;;1999.90;999.90;;;;;;;13.76;100.00;93841.50;5008745;28;20206;-56
2023/08/31 00:11:35;;;;;;;1999.90;999.90;;;;;;;13.71;100.00;93844.88;5008525;28;20558;-56
2023/08/31 00:14:00;;;;;;;1999.90;999.90;;;;;;;13.68;100.00;93837.56;5008396;28;20234;-56
2023/08/31 00:16:26;;;;;;;1999.90;999.90;;;;;;;13.63;100.00;93849.19;5008331;28;20198;-56
2023/08/31 00:18:52;;;;;;;1999.90;999.90;;;;;;;13.57;100.00;93853.75;5008025;28;20519;-54
2023/08/31 00:21:18;;;;;;;1999.90;999.90;;;;;;;13.50;100.00;93848.56;5007986;28;20191;-54
2023/08/31 00:23:43;;;;;;;1999.90;999.90;;;;;;;13.44;100.00;93858.63;5007888;28;20256;-57
2023/08/31 00:26:08;;;;;;;1999.90;999.90;;;;;;;13.38;100.00;93863.22;5008261;28;20186;-55
2023/08/31 00:28:34;;;;;;;1999.90;999.90;;;;;;;13.33;100.00;93858.34;5007877;28;20418;-56
2023/08/31 00:31:03;;;;;;;1999.90;999.90;;;;;;;13.27;100.00;93865.66;5008347;28;20191;-56
2023/08/31 00:33:28;;;;;;;1999.90;999.90;;;;;;;13.22;100.00;93864.28;5007598;28;20233;-57
2023/08/31 00:35:56;;;;;;;1999.90;999.90;;;;;;;13.16;100.00;93860.63;5008495;28;20187;-57
2023/08/31 00:38:21;;;;;;;1999.90;999.90;;;;;;;13.11;100.00;93868.69;5007390;28;20230;-56
2023/08/31 00:40:47;;;;;;;1999.90;999.90;;;;;;;13.07;100.00;93868.09;5007559;28;20198;-57
2023/08/31 00:43:15;;;;;;;1999.90;999.90;;;;;;;12.99;100.00;93864.91;5007576;28;20234;-54
2023/08/31 00:45:41;;;;;;;1999.90;999.90;;;;;;;12.94;100.00;93867.44;5007765;28;20191;-57
2023/08/31 00:48:07;;;;;;;1999.90;999.90;;;;;;;12.91;100.00;93862.88;5007678;28;20202;-56
2023/08/31 00:50:32;;;;;;;1999.90;999.90;;;;;;;12.83;100.00;93875.34;5007608;28;20209;-56
2023/08/31 00:52:58;;;;;;;1999.90;999.90;;;;;;;12.79;100.00;93869.25;5007685;28;20233;-55
2023/08/31 00:55:24;;;;;;;1999.90;999.90;;;;;;;12.80;100.00;93870.78;5008017;28;20482;-54
2023/08/31 00:57:49;;;;;;;1999.90;999.90;;;;;;;12.77;100.00;93872.44;5007976;28;20205;-57
2023/08/31 01:00:16;;;;;;;1999.90;999.90;;;;;;;12.73;100.00;93880.06;5007672;28;20233;-57
2023/08/31 01:02:57;;;;;;;1999.90;999.90;;;;;;;12.70;100.00;93880.97;5007689;28;20222;-55
2023/08/31 01:05:47;;;;;;;1999.90;999.90;;;;;;;12.67;100.00;93881.09;5008275;28;20202;-57
2023/08/31 01:08:39;;;;;;;1999.90;999.90;;;;;;;12.64;100.00;93885.50;5009352;28;20273;-57
2023/08/31 01:11:16;;;;;;;1999.90;999.90;;;;;;;12.58;100.00;93886.56;5011491;28;20221;-57
2023/08/31 01:13:48;;;;;;;1999.90;999.90;;;;;;;12.57;100.00;93879.56;5011661;28;20405;-56
2023/08/31 01:16:15;;;;;;;1999.90;999.90;;;;;;;12.55;100.00;93877.28;5011697;28;20202;-57
2023/08/31 01:18:41;;;;;;;1999.90;999.90;;;;;;;12.51;100.00;93879.41;5011224;28;20206;-55
2023/08/31 01:21:30;;;;;;;1999.90;999.90;;;;;;;12.53;100.00;93881.69;5011843;28;20198;-57
2023/08/31 01:23:57;;;;;;;1999.90;999.90;;;;;;;12.49;100.00;93881.81;5011455;28;20213;-56
2023/08/31 01:26:24;;;;;;;1999.90;999.90;;;;;;;12.48;100.00;93883.03;5011398;28;20211;-55
2023/08/31 01:28:51;;;;;;;1999.90;999.90;;;;;;;12.48;100.00;93887.72;5011102;28;20265;-55
2023/08/31 01:31:16;;;;;;;1999.90;999.90;;;;;;;12.46;100.00;93884.69;5011247;28;20225;-57
2023/08/31 01:33:42;;;;;;;1999.90;999.90;;;;;;;12.43;100.00;93888.34;5011056;28;20197;-50
2023/08/31 01:36:15;;;;;;;1999.90;999.90;;;;;;;12.40;100.00;93887.28;5011206;28;20200;-55
2023/08/31 01:38:45;;;;;;;1999.90;999.90;;;;;;;12.39;100.00;93891.19;5010627;28;20282;-56
2023/08/31 01:41:17;;;;;;;1999.90;999.90;;;;;;;12.39;100.00;93893.19;5011255;28;20192;-56
2023/08/31 01:43:43;;;;;;;1999.90;999.90;;;;;;;12.41;100.00;93888.00;5011234;28;20249;-57
2023/08/31 01:46:10;;;;;;;1999.90;999.90;;;;;;;12.47;100.00;93897.94;5010967;28;20203;-54
2023/08/31 01:48:40;;;;;;;1999.90;999.90;;;;;;;12.54;100.00;93888.69;5010857;28;20206;-57
2023/08/31 01:51:11;;;;;;;1999.90;999.90;;;;;;;12.60;100.00;93895.06;5011016;28;20261;-55
2023/08/31 01:53:36;;;;;;;1999.90;999.90;;;;;;;12.66;100.00;93893.25;5010555;28;20203;-52
2023/08/31 01:56:02;;;;;;;1999.90;999.90;;;;;;;12.67;100.00;93892.03;5010762;28;20202;-55
2023/08/31 01:58:28;;;;;;;1999.90;999.90;;;;;;;12.70;100.00;93893.88;5010640;28;20264;-54
2023/08/31 02:00:53;;;;;;;1999.90;999.90;;;;;;;12.74;100.00;93883.53;5010623;28;20500;-56
2023/08/31 02:03:18;;;;;;;1999.90;999.90;;;;;;;12.78;100.00;93889.63;5010283;28;20198;-56
2023/08/31 02:05:44;;;;;;;1999.90;999.90;;;;;;;12.81;100.00;93894.22;5011056;28;20213;-55
2023/08/31 02:08:09;;;;;;;1999.90;999.90;;;;;;;12.84;100.00;93891.34;5010610;28;20231;-56
2023/08/31 02:10:34;;;;;;;1999.90;999.90;;;;;;;12.87;100.00;93893.16;5010913;28;20174;-52
2023/08/31 02:13:00;;;;;;;1999.90;999.90;;;;;;;12.87;100.00;93892.41;5010567;28;20201;-52
2023/08/31 02:15:25;;;;;;;1999.90;999.90;;;;;;;12.89;100.00;93898.16;5010899;28;20210;-56
2023/08/31 02:17:50;;;;;;;1999.90;999.90;;;;;;;12.94;100.00;93897.59;5009890;28;20211;-53
2023/08/31 02:20:16;;;;;;;1999.90;999.90;;;;;;;12.99;100.00;93900.53;5010382;28;20211;-54
2023/08/31 02:22:41;;;;;;;1999.90;999.90;;;;;;;13.03;100.00;93905.84;5010422;28;20241;-54
2023/08/31 02:25:07;;;;;;;1999.90;999.90;;;;;;;13.10;100.00;93902.81;5010089;28;20211;-52
2023/08/31 02:27:32;;;;;;;1999.90;999.90;;;;;;;13.18;100.00;93906.78;5009884;28;20273;-51
2023/08/31 02:29:58;;;;;;;1999.90;999.90;;;;;;;13.24;100.00;93904.94;5010025;28;20228;-54
2023/08/31 02:32:23;;;;;;;1999.90;999.90;;;;;;;13.29;100.00;93910.59;5010711;28;20205;-52
2023/08/31 02:34:50;;;;;;;1999.90;999.90;;;;;;;13.37;100.00;93908.31;5010109;28;20199;-56
2023/08/31 02:37:15;;;;;;;1999.90;999.90;;;;;;;13.43;100.00;93922.94;5010166;28;20202;-55
2023/08/31 02:39:40;;;;;;;1999.90;999.90;;;;;;;13.52;100.00;93922.94;5009728;28;20280;-51
2023/08/31 02:42:06;;;;;;;1999.90;999.90;;;;;;;13.52;100.00;93931.16;5010059;28;20226;-52
2023/08/31 02:44:32;;;;;;;1999.90;999.90;;;;;;;13.45;100.00;93931.47;5010221;28;20199;-51
2023/08/31 02:46:57;;;;;;;1999.90;999.90;;;;;;;13.42;100.00;93937.88;5009681;28;20491;-50
2023/08/31 02:49:22;;;;;;;1999.90;999.90;;;;;;;13.39;100.00;93933.28;5010158;28;20269;-49
2023/08/31 02:51:49;;;;;;;1999.90;999.90;;;;;;;13.41;100.00;93946.53;5009534;28;20230;-51
2023/08/31 02:54:15;;;;;;;1999.90;999.90;;;;;;;13.37;100.00;93949.44;5009700;28;20226;-50
2023/08/31 02:56:40;;;;;;;1999.90;999.90;;;;;;;13.37;100.00;93952.19;5009599;28;20203;-50
2023/08/31 02:59:05;;;;;;;1999.90;999.90;;;;;;;13.37;100.00;93951.41;5009462;28;20218;-50
2023/08/31 03:01:31;;;;;;;1999.90;999.90;;;;;;;13.36;100.00;93945.16;5009369;28;20203;-51
2023/08/31 03:03:56;;;;;;;1999.90;999.90;;;;;;;13.35;100.00;93949.13;5009625;28;20194;-49
2023/08/31 03:06:21;;;;;;;1999.90;999.90;;;;;;;13.33;100.00;93946.06;5009558;28;20196;-49
2023/08/31 03:08:47;;;;;;;1999.90;999.90;;;;;;;13.30;100.00;93925.81;5009544;28;20187;-56
2023/08/31 03:11:14;;;;;;;1999.90;999.90;;;;;;;13.30;100.00;93925.06;5009483;28;20182;-48
2023/08/31 03:13:39;;;;;;;1999.90;999.90;;;;;;;13.28;100.00;93935.72;5009801;28;20195;-55
2023/08/31 03:16:05;;;;;;;1999.90;999.90;;;;;;;13.26;100.00;93921.72;5009304;28;20206;-49
2023/08/31 03:18:30;;;;;;;1999.90;999.90;;;;;;;13.26;100.00;93935.44;5009557;28;20256;-50
2023/08/31 03:20:56;;;;;;;1999.90;999.90;;;;;;;13.23;100.00;93936.34;5009045;28;20191;-52
2023/08/31 03:23:21;;;;;;;1999.90;999.90;;;;;;;13.21;100.00;93936.00;5009237;28;20207;-52
2023/08/31 03:25:47;;;;;;;1999.90;999.90;;;;;;;13.16;100.00;93936.63;5009193;28;20198;-52
2023/08/31 03:28:13;;;;;;;1999.90;999.90;;;;;;;13.15;100.00;93951.56;5009458;28;20199;-51
2023/08/31 03:30:38;;;;;;;1999.90;999.90;;;;;;;13.11;100.00;93945.44;5008063;28;20187;-52
2023/08/31 03:33:04;;;;;;;1999.90;999.90;;;;;;;13.10;100.00;93952.13;5008937;28;20197;-52
2023/08/31 03:35:29;;;;;;;1999.90;999.90;;;;;;;13.05;100.00;93950.00;5008913;28;20321;-48
2023/08/31 03:37:55;;;;;;;1999.90;999.90;;;;;;;13.03;100.00;93949.69;5008968;28;20202;-49
2023/08/31 03:40:22;;;;;;;1999.90;999.90;;;;;;;13.01;100.00;93960.34;5009092;28;20194;-52
2023/08/31 03:42:48;;;;;;;1999.90;999.90;;;;;;;12.98;100.00;93970.25;5008685;28;20167;-54
2023/08/31 03:45:13;;;;;;;1999.90;999.90;;;;;;;12.95;100.00;93970.34;5009030;28;20245;-51
2023/08/31 03:47:38;;;;;;;1999.90;999.90;;;;;;;12.92;100.00;93988.47;5008609;28;20195;-50
2023/08/31 03:50:05;;;;;;;1999.90;999.90;;;;;;;12.91;100.00;93991.66;5008931;28;20198;-50
2023/08/31 03:52:30;;;;;;;1999.90;999.90;;;;;;;12.88;100.00;93992.56;5008300;28;20237;-52
2023/08/31 03:54:55;;;;;;;1999.90;999.90;;;;;;;12.89;100.00;94007.78;5008878;28;20191;-49
2023/08/31 03:57:20;;;;;;;1999.90;999.90;;;;;;;12.88;100.00;94009.00;5008777;28;20187;-53
2023/08/31 03:59:46;;;;;;;1999.90;999.90;;;;;;;12.88;100.00;94009.78;5008463;28;20253;-52
2023/08/31 04:02:11;;;;;;;1999.90;999.90;;;;;;;12.88;100.00;94023.47;5008344;28;20191;-53
2023/08/31 04:04:37;;;;;;;1999.90;999.90;;;;;;;12.87;100.00;94029.41;5008173;28;20199;-52
2023/08/31 04:07:02;;;;;;;1999.90;999.90;;;;;;;12.88;100.00;94031.69;5008384;28;20183;-53
2023/08/31 04:09:27;;;;;;;1999.90;999.90;;;;;;;12.90;100.00;94034.72;5008453;28;20266;-53
2023/08/31 04:11:53;;;;;;;1999.90;999.90;;;;;;;12.92;100.00;94031.53;5008300;28;20183;-53
2023/08/31 04:14:18;;;;;;;1999.90;999.90;;;;;;;12.93;100.00;94041.31;5008152;28;20175;-48
2023/08/31 04:16:45;;;;;;;1999.90;999.90;;;;;;;12.91;100.00;94057.41;5007954;28;20198;-52
2023/08/31 04:19:10;;;;;;;1999.90;999.90;;;;;;;12.92;100.00;94053.47;5008301;28;20207;-52
2023/08/31 04:21:37;;;;;;;1999.90;999.90;;;;;;;12.92;100.00;94067.94;5008404;28;20232;-48
2023/08/31 04:24:02;;;;;;;1999.90;999.90;;;;;;;12.90;100.00;94069.59;5007921;28;20195;-49
2023/08/31 04:26:28;;;;;;;1999.90;999.90;;;;;;;12.91;100.00;94074.63;5007988;28;20202;-55
2023/08/31 04:28:57;;;;;;;1999.90;999.90;;;;;;;12.91;100.00;94079.34;5007823;28;20190;-50
2023/08/31 04:31:23;;;;;;;1999.90;999.90;;;;;;;12.93;100.00;94085.16;5008336;28;20191;-54
2023/08/31 04:33:48;;;;;;;1999.90;999.90;;;;;;;12.97;100.00;94099.47;5007688;28;20198;-57
2023/08/31 04:36:13;;;;;;;1999.90;999.90;;;;;;;12.99;100.00;94094.31;5007984;28;20370;-48
2023/08/31 04:38:39;;;;;;;1999.90;999.90;;;;;;;12.98;100.00;94098.28;5007852;28;20417;-50
2023/08/31 04:41:04;;;;;;;1999.90;999.90;;;;;;;12.96;100.00;94117.88;5008032;28;20195;-49
2023/08/31 04:43:29;;;;;;;1999.90;999.90;;;;;;;12.95;100.00;94129.28;5007525;28;20229;-50
2023/08/31 04:45:55;;;;;;;1999.90;999.90;;;;;;;12.97;100.00;94124.13;5008278;28;20195;-55
2023/08/31 04:48:21;;;;;;;1999.90;999.90;;;;;;;13.01;100.00;94141.22;5008047;28;20233;-52
2023/08/31 04:50:46;;;;;;;1999.90;999.90;;;;;;;13.06;100.00;94146.13;5007516;28;20191;-50
2023/08/31 04:53:12;;;;;;;1999.90;999.90;;;;;;;13.05;100.00;94139.13;5007683;28;20218;-54
2023/08/31 04:55:40;;;;;;;1999.90;999.90;;;;;;;13.08;100.00;94144.44;5007412;28;20195;-53
2023/08/31 04:58:05;;;;;;;1999.90;999.90;;;;;;;13.11;100.00;94142.78;5007594;28;20213;-53
2023/08/31 05:00:31;;;;;;;1999.90;999.90;;;;;;;13.16;100.00;94150.44;5007943;28;20222;-52
2023/08/31 05:02:57;;;;;;;1999.90;999.90;;;;;;;13.19;100.00;94149.53;5007405;28;20191;-52
2023/08/31 05:05:22;;;;;;;1999.90;999.90;;;;;;;13.19;100.00;94155.78;5007509;28;20195;-52
2023/08/31 05:07:48;;;;;;;1999.90;999.90;;;;;;;13.26;100.00;94154.75;5007328;28;20433;-52
2023/08/31 05:10:13;;;;;;;1999.90;999.90;;;;;;;13.30;100.00;94161.63;5007291;28;20199;-51
2023/08/31 05:12:38;;;;;;;1999.90;999.90;;;;;;;13.36;100.00;94167.28;5007514;28;20187;-52
2023/08/31 05:15:04;;;;;;;1999.90;999.90;;;;;;;13.40;100.00;94164.41;5007663;28;20176;-53
2023/08/31 05:17:30;;;;;;;1999.90;999.90;;;;;;;13.44;100.00;94160.28;5007189;28;20191;-55
2023/08/31 05:19:56;;;;;;;1999.90;999.90;;;;;;;13.54;100.00;94161.13;5007543;28;20237;-54
2023/08/31 05:22:22;;;;;;;1999.90;999.90;;;;;;;13.59;100.00;94161.28;5007685;28;20496;-52
2023/08/31 05:24:47;;;;;;;1999.90;999.90;;;;;;;13.62;100.00;94160.38;5007633;28;20195;-51
2023/08/31 05:27:13;;;;;;;1999.90;999.90;;;;;;;13.65;100.00;94164.19;5007209;28;20210;-51
2023/08/31 05:29:38;;;;;;;1999.90;999.90;;;;;;;13.67;100.00;94179.00;5007352;28;20233;-50
2023/08/31 05:32:04;;;;;;;1999.90;999.90;;;;;;;13.66;100.00;94187.66;5007198;28;20202;-47
2023/08/31 05:34:32;;;;;;;1999.90;999.90;;;;;;;13.67;100.00;94179.00;5007682;28;20270;-52
2023/08/31 05:36:57;;;;;;;1999.90;999.90;;;;;;;13.73;100.00;94165.44;5007386;28;20233;-53
2023/08/31 05:39:23;;;;;;;1999.90;999.90;;;;;;;13.76;100.00;94170.78;5007258;28;20207;-53
2023/08/31 05:41:48;;;;;;;1999.90;999.90;;;;;;;13.86;100.00;94180.56;5007339;28;20264;-54
2023/08/31 05:44:13;;;;;;;1999.90;999.90;;;;;;;13.90;100.00;94178.44;5007745;28;20195;-53
2023/08/31 05:46:40;;;;;;;1999.90;999.90;;;;;;;13.97;100.00;94180.91;5006892;28;20171;-53
2023/08/31 05:49:06;;;;;;;1999.90;999.90;;;;;;;14.02;100.00;94176.78;5007391;28;20199;-53
2023/08/31 05:51:32;;;;;;;1999.90;999.90;;;;;;;14.00;100.00;94179.22;5007095;28;20195;-52
2023/08/31 05:53:57;;;;;;;1999.90;999.90;;;;;;;13.99;100.00;94183.94;5007734;28;20195;-52
2023/08/31 05:56:22;;;;;;;1999.90;999.90;;;;;;;14.08;100.00;94175.72;5010555;28;20195;-50
2023/08/31 05:58:50;;;;;;;1999.90;999.90;;;;;;;14.13;100.00;94172.38;5010595;28;20249;-53
2023/08/31 06:01:15;;;;;;;1999.90;999.90;;;;;;;14.11;100.00;94166.59;5010436;28;20190;-55
2023/08/31 06:03:40;;;;;;;1999.90;999.90;;;;;;;14.05;100.00;94160.16;5010391;28;20423;-54
2023/08/31 06:06:06;;;;;;;1999.90;999.90;;;;;;;14.04;100.00;94158.66;5010630;28;20199;-54
2023/08/31 06:08:31;;;;;;;1999.90;999.90;;;;;;;14.04;100.00;94158.66;5010436;28;20203;-53
2023/08/31 06:10:56;;;;;;;1999.90;999.90;;;;;;;14.09;100.00;94149.81;5010358;28;20250;-54
2023/08/31 06:13:22;;;;;;;1999.90;999.90;;;;;;;14.15;100.00;94142.50;5010223;28;20337;-55
2023/08/31 06:15:47;;;;;;;1999.90;999.90;;;;;;;14.17;100.00;94142.03;5010127;28;20175;-54
2023/08/31 06:18:13;;;;;;;1999.90;999.90;;;;;;;14.16;100.00;94138.53;5010918;28;20218;-56
2023/08/31 06:20:38;;;;;;;1999.90;999.90;;;;;;;14.18;100.00;94133.34;5010108;28;20210;-55
2023/08/31 06:23:04;;;;;;;1999.90;999.90;;;;;;;14.24;100.00;94128.03;5010272;28;20214;-55
2023/08/31 06:25:29;;;;;;;1999.90;999.90;;;;;;;14.28;100.00;94126.66;5009923;28;20199;-56
2023/08/31 06:27:54;;;;;;;1999.90;999.90;;;;;;;14.33;100.00;94117.03;5010254;28;20237;-57
2023/08/31 06:30:20;;;;;;;1999.90;999.90;;;;;;;14.35;100.00;94122.84;5009911;28;20225;-57
2023/08/31 06:32:46;;;;;;;1999.90;999.90;;;;;;;14.42;100.00;94117.81;5010087;28;20487;-54
2023/08/31 06:35:13;;;;;;;1999.90;999.90;;;;;;;14.50;100.00;94104.53;5010098;28;20191;-57
2023/08/31 06:37:39;;;;;;;1999.90;999.90;;;;;;;14.48;100.00;94115.97;5009780;28;20202;-56
2023/08/31 06:40:06;;;;;;;1999.90;999.90;;;;;;;14.55;100.00;94103.91;5009967;28;20507;-57
2023/08/31 06:42:31;;;;;;;1999.90;999.90;;;;;;;14.53;100.00;94109.13;5009769;28;20222;-56
2023/08/31 06:44:57;;;;;;;1999.90;999.90;;;;;;;14.58;100.00;94097.50;5009622;28;20389;-59
2023/08/31 06:47:23;;;;;;;1999.90;999.90;;;;;;;14.62;100.00;94101.63;5010236;28;20250;-53
2023/08/31 06:49:49;;;;;;;1999.90;999.90;;;;;;;14.69;100.00;94093.06;5010105;28;20199;-56
2023/08/31 06:52:15;;;;;;;1999.90;999.90;;;;;;;14.79;100.00;94096.56;5010026;28;20263;-55
2023/08/31 06:54:41;;;;;;;1999.90;999.90;;;;;;;14.81;100.00;94091.34;5009807;28;20210;-51
2023/08/31 06:57:07;;;;;;;1999.90;999.90;;;;;;;14.89;100.00;94082.31;5009367;28;20199;-55
2023/08/31 06:59:33;;;;;;;1999.90;999.90;;;;;;;14.85;100.00;94073.47;5009711;28;20207;-58
2023/08/31 07:01:58;;;;;;;1999.90;999.90;;;;;;;14.82;100.00;94068.88;5009601;28;20198;-54
2023/08/31 07:04:23;;;;;;;1999.90;999.90;;;;;;;14.76;100.00;94065.25;5009217;28;20233;-54
2023/08/31 07:06:49;;;;;;;1999.90;999.90;;;;;;;14.78;100.00;94056.53;5008210;28;20199;-56
2023/08/31 07:09:14;;;;;;;1999.90;999.90;;;;;;;14.74;100.00;94051.22;5009554;28;20195;-55
2023/08/31 07:11:39;;;;;;;1999.90;999.90;;;;;;;14.75;100.00;94057.47;5009197;28;20373;-55
2023/08/31 07:14:05;;;;;;;1999.90;999.90;;;;;;;14.73;100.00;94055.19;5009257;28;20195;-52
2023/08/31 07:16:30;;;;;;;1999.90;999.90;;;;;;;14.83;100.00;94045.66;5008910;28;20195;-54
2023/08/31 07:18:55;;;;;;;1999.90;999.90;;;;;;;14.78;100.00;94046.31;5008990;28;20198;-56
2023/08/31 07:21:22;;;;;;;1999.90;999.90;;;;;;;14.90;100.00;94050.84;5009697;28;20245;-56
2023/08/31 07:23:48;;;;;;;1999.90;999.90;;;;;;;14.89;100.00;94045.81;5009576;28;20258;-57
2023/08/31 07:26:13;;;;;;;1999.90;999.90;;;;;;;14.92;100.00;94051.16;5009272;28;20206;-56
2023/08/31 07:28:39;;;;;;;1999.90;999.90;;;;;;;15.02;100.00;94055.41;5008965;28;20270;-56
2023/08/31 07:31:06;;;;;;;1999.90;999.90;;;;;;;15.25;100.00;94051.16;5008765;28;20394;-57
2023/08/31 07:33:32;;;;;;;1999.90;999.90;;;;;;;15.63;100.00;94043.06;5008853;28;20198;-56
2023/08/31 07:35:58;;;;;;;1999.90;999.90;;;;;;;15.85;100.00;94044.25;5009230;28;20225;-57
2023/08/31 07:38:25;;;;;;;1999.90;999.90;;;;;;;15.91;100.00;94041.63;5009070;28;20515;-57
2023/08/31 07:40:50;;;;;;;1999.90;999.90;;;;;;;15.91;100.00;94038.84;5008723;28;20199;-56
2023/08/31 07:43:15;;;;;;;1999.90;999.90;;;;;;;15.88;100.00;94054.34;5008903;28;20205;-57
2023/08/31 07:45:41;;;;;;;1999.90;999.90;;;;;;;16.05;100.00;94041.66;5008872;28;20199;-58
2023/08/31 07:48:06;;;;;;;1999.90;999.90;;;;;;;16.02;100.00;94050.88;5009027;28;20206;-58
2023/08/31 07:50:32;;;;;;;1999.90;999.90;;;;;;;16.06;100.00;94065.22;5008916;28;20514;-57
2023/08/31 07:52:57;;;;;;;1999.90;999.90;;;;;;;16.03;100.00;94062.66;5008586;28;20198;-58
2023/08/31 07:55:23;;;;;;;1999.90;999.90;;;;;;;16.11;100.00;94083.84;5008877;28;20207;-58
2023/08/31 07:57:48;;;;;;;1999.90;999.90;;;;;;;15.97;100.00;94103.84;5008616;28;20222;-57
2023/08/31 08:00:17;;;;;;;1999.90;999.90;;;;;;;16.30;100.00;94121.06;5008384;28;20251;-58
2023/08/31 08:02:44;;;;;;;1999.90;999.90;;;;;;;16.87;100.00;94143.75;5008310;28;20195;-55
2023/08/31 08:05:10;;;;;;;1999.90;999.90;;;;;;;18.42;100.00;94207.75;5008170;28;20195;-59
2023/08/31 08:07:35;;;;;;;1999.90;999.90;;;;;;;18.42;100.00;94395.78;5008279;28;20237;-56
2023/08/31 08:10:00;;;;;;;1999.90;999.90;;;;;;;18.69;100.00;94564.22;5008134;28;20187;-58
2023/08/31 08:12:26;;;;;;;1999.90;999.90;;;;;;;20.62;100.00;94784.31;5008350;28;20234;-59
2023/08/31 08:14:51;;;;;;;1999.90;999.90;;;;;;;21.99;100.00;94952.13;5008065;28;20262;-58
2023/08/31 08:17:16;;;;;;;1999.90;999.90;;;;;;;21.94;100.00;95044.63;5007568;28;20242;-57
2023/08/31 08:19:42;;;;;;;1999.90;999.90;;;;;;;21.18;100.00;95077.50;5008279;28;20257;-59
2023/08/31 08:22:07;;;;;;;1999.90;999.90;;;;;;;20.17;100.00;95095.47;5008220;28;20202;-59
2023/08/31 08:24:32;;;;;;;1999.90;999.90;;;;;;;20.20;100.00;95082.66;5008292;28;20214;-59
2023/08/31 08:26:58;;;;;;;1999.90;999.90;;;;;;;20.32;100.00;95093.53;5007936;28;20199;-58
2023/08/31 08:29:24;;;;;;;1999.90;999.90;;;;;;;19.98;100.00;95099.59;5007814;28;20274;-61
2023/08/31 08:31:50;;;;;;;1999.90;999.90;;;;;;;20.04;100.00;95100.47;5007776;28;20200;-58
2023/08/31 08:34:15;;;;;;;1999.90;999.90;;;;;;;19.54;100.00;95115.19;5007622;28;20195;-58
2023/08/31 08:36:40;;;;;;;1999.90;999.90;;;;;;;19.19;100.00;95100.19;5007629;28;20206;-58
2023/08/31 08:39:06;;;;;;;1999.90;999.90;;;;;;;18.84;100.00;95085.97;5007666;28;20222;-58
2023/08/31 08:41:32;;;;;;;1999.90;999.90;;;;;;;18.59;100.00;95082.78;5007688;28;20195;-59
2023/08/31 08:44:03;;;;;;;1999.90;999.90;;;;;;;18.61;100.00;95066.50;5007646;28;20202;-58
2023/08/31 08:46:30;;;;;;;1999.90;999.90;;;;;;;18.99;100.00;95069.50;5008080;28;20215;-58
2023/08/31 08:48:59;;;;;;;1999.90;999.90;;;;;;;19.26;100.00;95091.59;5007816;28;20234;-59
2023/08/31 08:51:24;;;;;;;1999.90;999.90;;;;;;;18.86;100.00;95107.66;5007886;28;20223;-59
2023/08/31 08:53:51;;;;;;;1999.90;999.90;;;;;;;18.63;100.00;95113.81;5007917;28;20245;-57
2023/08/31 08:56:17;;;;;;;1999.90;999.90;;;;;;;18.88;100.00;95108.75;5007779;28;20612;-57
2023/08/31 08:58:42;;;;;;;1999.90;999.90;;;;;;;19.49;100.00;95113.81;5007711;28;20226;-59
2023/08/31 09:01:08;;;;;;;1999.90;999.90;;;;;;;21.14;100.00;95133.28;5007252;28;20199;-58
2023/08/31 09:03:34;;;;;;;1999.90;999.90;;;;;;;23.58;100.00;95150.09;5007419;28;20241;-59
2023/08/31 09:06:02;;;;;;;1999.90;999.90;;;;;;;23.11;100.00;95155.38;5007607;28;20209;-58
2023/08/31 09:08:29;;;;;;;1999.90;999.90;;;;;;;22.22;100.00;95164.63;5007281;28;20199;-59
2023/08/31 09:10:58;;;;;;;1999.90;999.90;;;;;;;22.20;100.00;95164.34;5007473;28;20266;-59
2023/08/31 09:13:27;;;;;;;1999.90;999.90;;;;;;;21.25;100.00;95171.59;5007579;28;20198;-59
2023/08/31 09:15:53;;;;;;;1999.90;999.90;;;;;;;20.87;100.00;95174.38;5007880;28;20183;-58
2023/08/31 09:18:29;;;;;;;1999.90;999.90;;;;;;;20.60;100.00;95169.00;5007538;28;20222;-59
2023/08/31 09:20:59;;;;;;;1999.90;999.90;;;;;;;21.02;100.00;95170.41;5007289;28;20249;-59
2023/08/31 09:23:25;;;;;;;1999.90;999.90;;;;;;;20.64;100.00;95177.94;5007072;28;20281;-59
2023/08/31 09:25:53;;;;;;;1999.90;999.90;;;;;;;20.32;100.00;95179.53;5007134;28;20203;-59
2023/08/31 09:28:26;;;;;;;1999.90;999.90;;;;;;;20.03;100.00;95179.34;5007110;28;20207;-59
2023/08/31 09:30:53;;;;;;;1999.90;999.90;;;;;;;19.82;100.00;95179.59;5011154;28;20199;-59
2023/08/31 09:33:22;;;;;;;1999.90;999.90;;;;;;;19.66;100.00;95172.41;5011315;28;20246;-58
2023/08/31 09:35:52;;;;;;;1999.90;999.90;;;;;;;19.67;100.00;95173.97;5011188;28;20222;-58
2023/08/31 09:38:18;;;;;;;1999.90;999.90;;;;;;;19.49;100.00;95168.47;5010962;28;20258;-58
2023/08/31 09:40:44;;;;;;;1999.90;999.90;;;;;;;19.61;100.00;95170.28;5011159;28;20171;-59
2023/08/31 09:43:09;;;;;;;1999.90;999.90;;;;;;;19.67;100.00;95168.44;5011108;28;20207;-59
2023/08/31 09:45:36;;;;;;;1999.90;999.90;;;;;;;19.82;100.00;95183.16;5010795;28;20206;-59
2023/08/31 09:48:03;;;;;;;1999.90;999.90;;;;;;;20.34;100.00;95177.06;5010946;28;20238;-58
2023/08/31 09:50:33;;;;;;;1999.90;999.90;;;;;;;20.92;100.00;95177.28;5010611;28;20277;-59
2023/08/31 09:53:01;;;;;;;1999.90;999.90;;;;;;;20.90;100.00;95168.63;5011053;28;20203;-57
2023/08/31 09:55:29;;;;;;;1999.90;999.90;;;;;;;21.52;100.00;95180.41;5010627;28;20272;-59
2023/08/31 09:57:56;;;;;;;1999.90;999.90;;;;;;;22.03;100.00;95175.22;5010742;28;20199;-59
2023/08/31 10:00:22;;;;;;;1999.90;999.90;;;;;;;21.82;100.00;95176.41;5010986;28;20199;-59
2023/08/31 10:02:49;;;;;;;1999.90;999.90;;;;;;;21.65;100.00;95178.13;5010989;28;20195;-57
2023/08/31 10:05:15;;;;;;;1999.90;999.90;;;;;;;21.52;100.00;95180.41;5010893;28;20275;-58
2023/08/31 10:07:41;;;;;;;1999.90;999.90;;;;;;;20.98;100.00;95180.94;5010269;28;20171;-58
2023/08/31 10:10:07;;;;;;;1999.90;999.90;;;;;;;21.05;100.00;95168.69;5010673;28;20210;-58
2023/08/31 10:12:35;;;;;;;1999.90;999.90;;;;;;;21.27;100.00;95183.75;5010170;28;20203;-59
2023/08/31 10:15:01;;;;;;;1999.90;999.90;;;;;;;21.06;100.00;95176.56;5010256;28;20203;-58
2023/08/31 10:17:27;;;;;;;1999.90;999.90;;;;;;;20.58;100.00;95168.72;5010899;28;20210;-60
2023/08/31 10:19:53;;;;;;;1999.90;999.90;;;;;;;20.25;100.00;95177.09;5010815;28;20211;-57
2023/08/31 10:22:19;;;;;;;1999.90;999.90;;;;;;;20.03;100.00;95173.78;5010151;28;20266;-58
2023/08/31 10:25:03;;;;;;;1999.90;999.90;;;;;;;20.01;100.00;95176.28;5010066;28;20206;-58
2023/08/31 10:27:36;;;;;;;1999.90;999.90;;;;;;;19.96;100.00;95178.94;5009932;28;20202;-59
2023/08/31 10:30:15;;;;;;;1999.90;999.90;;;;;;;19.81;100.00;95166.97;5009653;28;20191;-58
2023/08/31 10:32:41;;;;;;;1999.90;999.90;;;;;;;19.75;100.00;95174.38;5009552;28;20206;-58
2023/08/31 10:35:09;;;;;;;1999.90;999.90;;;;;;;19.82;100.00;95166.50;5010162;28;20203;-58
2023/08/31 10:37:35;;;;;;;1999.90;999.90;;;;;;;19.81;100.00;95173.28;5009686;28;20209;-58
2023/08/31 10:40:13;;;;;;;1999.90;999.90;;;;;;;19.68;100.00;95172.72;5009345;28;20286;-58
2023/08/31 10:42:47;;;;;;;1999.90;999.90;;;;;;;19.34;100.00;95178.69;5010266;28;20203;-58
2023/08/31 10:45:13;;;;;;;1999.90;999.90;;;;;;;19.26;100.00;95172.69;5010239;28;20277;-56